sensor_id;sensor_type;location;lat;lon;timestamp;temperature;humidity
44823;DHT22;51097;51.984;5.650;2024-03-22T00:01:40;14.80;99.90
44823;DHT22;51097;51.984;5.650;2024-03-22T00:04:05;14.90;99.90
44823;DHT22;51097;51.984;5.650;2024-03-22T00:06:31;14.90;99.90
44823;DHT22;51097;51.984;5.650;2024-03-22T00:08:56;14.90;99.90
44823;DHT22;51097;51.984;5.650;2024-03-22T00:11:22;14.80;99.90
44823;DHT22;51097;51.984;5.650;2024-03-22T00:13:47;14.80;99.90
44823;DHT22;51097;51.984;5.650;2024-03-22T00:16:13;14.80;99.90
44823;DHT22;51097;51.984;5.650;2024-03-22T00:18:38;14.90;99.90
44823;DHT22;51097;51.984;5.650;2024-03-22T00:21:04;14.90;99.90
44823;DHT22;51097;51.984;5.650;2024-03-22T00:23:29;15.00;99.90
44823;DHT22;51097;51.984;5.650;2024-03-22T00:25:56;14.90;99.90
44823;DHT22;51097;51.984;5.650;2024-03-22T00:28:21;15.00;99.90
44823;DHT22;51097;51.984;5.650;2024-03-22T00:30:47;15.00;99.90
44823;DHT22;51097;51.984;5.650;2024-03-22T00:33:12;15.10;99.90
44823;DHT22;51097;51.984;5.650;2024-03-22T00:35:38;15.10;99.90
44823;DHT22;51097;51.984;5.650;2024-03-22T00:38:03;15.00;99.90
44823;DHT22;51097;51.984;5.650;2024-03-22T00:40:29;15.10;99.90
44823;DHT22;51097;51.984;5.650;2024-03-22T00:42:54;15.00;99.90
44823;DHT22;51097;51.984;5.650;2024-03-22T00:45:20;15.10;99.90
44823;DHT22;51097;51.984;5.650;2024-03-22T00:47:45;15.10;99.90
44823;DHT22;51097;51.984;5.650;2024-03-22T00:50:11;15.00;99.90
44823;DHT22;51097;51.984;5.650;2024-03-22T00:52:39;15.10;99.90
44823;DHT22;51097;51.984;5.650;2024-03-22T00:55:04;15.20;99.90
44823;DHT22;51097;51.984;5.650;2024-03-22T00:57:30;15.20;99.90
44823;DHT22;51097;51.984;5.650;2024-03-22T00:59:56;15.30;99.90
44823;DHT22;51097;51.984;5.650;2024-03-22T01:02:22;15.20;99.90
44823;DHT22;51097;51.984;5.650;2024-03-22T01:04:48;15.20;99.90
44823;DHT22;51097;51.984;5.650;2024-03-22T01:07:13;15.20;99.90
44823;DHT22;51097;51.984;5.650;2024-03-22T01:09:39;15.20;99.90
44823;DHT22;51097;51.984;5.650;2024-03-22T01:12:05;15.20;99.90
44823;DHT22;51097;51.984;5.650;2024-03-22T01:14:30;15.20;99.90
44823;DHT22;51097;51.984;5.650;2024-03-22T01:16:56;15.10;99.90
44823;DHT22;51097;51.984;5.650;2024-03-22T01:19:22;15.20;99.90
44823;DHT22;51097;51.984;5.650;2024-03-22T01:21:48;15.20;99.90
44823;DHT22;51097;51.984;5.650;2024-03-22T01:24:14;15.20;99.90
44823;DHT22;51097;51.984;5.650;2024-03-22T01:26:40;15.10;99.90
44823;DHT22;51097;51.984;5.650;2024-03-22T01:29:05;15.20;99.90
44823;DHT22;51097;51.984;5.650;2024-03-22T01:31:31;15.10;99.90
44823;DHT22;51097;51.984;5.650;2024-03-22T01:33:56;15.00;99.90
44823;DHT22;51097;51.984;5.650;2024-03-22T01:36:22;15.00;99.90
44823;DHT22;51097;51.984;5.650;2024-03-22T01:38:47;15.10;99.90
44823;DHT22;51097;51.984;5.650;2024-03-22T01:41:13;15.00;99.90
44823;DHT22;51097;51.984;5.650;2024-03-22T01:43:38;15.10;99.90
44823;DHT22;51097;51.984;5.650;2024-03-22T01:46:04;15.10;99.90
44823;DHT22;51097;51.984;5.650;2024-03-22T01:48:33;15.10;99.90
44823;DHT22;51097;51.984;5.650;2024-03-22T01:51:00;15.10;99.90
44823;DHT22;51097;51.984;5.650;2024-03-22T01:53:25;15.00;99.90
44823;DHT22;51097;51.984;5.650;2024-03-22T01:55:51;15.00;99.90
44823;DHT22;51097;51.984;5.650;2024-03-22T01:58:17;14.80;99.90
44823;DHT22;51097;51.984;5.650;2024-03-22T02:00:43;15.10;99.90
44823;DHT22;51097;51.984;5.650;2024-03-22T02:03:09;14.90;99.90
44823;DHT22;51097;51.984;5.650;2024-03-22T02:05:35;15.00;99.90
44823;DHT22;51097;51.984;5.650;2024-03-22T02:08:00;15.00;99.90
44823;DHT22;51097;51.984;5.650;2024-03-22T02:10:26;14.90;99.90
44823;DHT22;51097;51.984;5.650;2024-03-22T02:12:52;15.10;99.90
44823;DHT22;51097;51.984;5.650;2024-03-22T02:15:17;15.00;99.90
44823;DHT22;51097;51.984;5.650;2024-03-22T02:17:43;15.10;99.90
44823;DHT22;51097;51.984;5.650;2024-03-22T02:20:09;15.00;99.90
44823;DHT22;51097;51.984;5.650;2024-03-22T02:22:35;15.10;99.90
44823;DHT22;51097;51.984;5.650;2024-03-22T02:25:01;15.10;99.90
44823;DHT22;51097;51.984;5.650;2024-03-22T02:27:26;15.10;99.90
44823;DHT22;51097;51.984;5.650;2024-03-22T02:29:52;15.00;99.90
44823;DHT22;51097;51.984;5.650;2024-03-22T02:32:17;15.10;99.90
44823;DHT22;51097;51.984;5.650;2024-03-22T02:34:43;15.00;99.90
44823;DHT22;51097;51.984;5.650;2024-03-22T02:37:08;15.20;99.90
44823;DHT22;51097;51.984;5.650;2024-03-22T02:39:34;15.10;99.90
44823;DHT22;51097;51.984;5.650;2024-03-22T02:42:00;15.10;99.90
44823;DHT22;51097;51.984;5.650;2024-03-22T02:44:25;15.00;99.90
44823;DHT22;51097;51.984;5.650;2024-03-22T02:46:51;15.10;99.90
44823;DHT22;51097;51.984;5.650;2024-03-22T02:49:16;15.10;99.90
44823;DHT22;51097;51.984;5.650;2024-03-22T02:51:42;15.10;99.90
44823;DHT22;51097;51.984;5.650;2024-03-22T02:54:10;15.10;99.90
44823;DHT22;51097;51.984;5.650;2024-03-22T02:56:35;15.10;99.90
44823;DHT22;51097;51.984;5.650;2024-03-22T02:59:01;15.20;99.90
44823;DHT22;51097;51.984;5.650;2024-03-22T03:01:26;15.00;99.90
44823;DHT22;51097;51.984;5.650;2024-03-22T03:03:52;15.20;99.90
44823;DHT22;51097;51.984;5.650;2024-03-22T03:06:18;15.00;99.90
44823;DHT22;51097;51.984;5.650;2024-03-22T03:08:45;15.10;99.90
44823;DHT22;51097;51.984;5.650;2024-03-22T03:11:11;15.00;99.90
44823;DHT22;51097;51.984;5.650;2024-03-22T03:13:36;15.00;99.90
44823;DHT22;51097;51.984;5.650;2024-03-22T03:16:02;15.00;99.90
44823;DHT22;51097;51.984;5.650;2024-03-22T03:18:28;15.00;99.90
44823;DHT22;51097;51.984;5.650;2024-03-22T03:20:53;15.00;99.90
44823;DHT22;51097;51.984;5.650;2024-03-22T03:23:19;15.00;99.90
44823;DHT22;51097;51.984;5.650;2024-03-22T03:25:46;15.10;99.90
44823;DHT22;51097;51.984;5.650;2024-03-22T03:28:11;15.00;99.90
44823;DHT22;51097;51.984;5.650;2024-03-22T03:30:38;15.10;99.90
44823;DHT22;51097;51.984;5.650;2024-03-22T03:33:04;15.00;99.90
44823;DHT22;51097;51.984;5.650;2024-03-22T03:35:30;14.90;99.90
44823;DHT22;51097;51.984;5.650;2024-03-22T03:37:55;14.90;99.90
44823;DHT22;51097;51.984;5.650;2024-03-22T03:40:21;15.00;99.90
44823;DHT22;51097;51.984;5.650;2024-03-22T03:42:50;15.00;99.90
44823;DHT22;51097;51.984;5.650;2024-03-22T03:45:16;14.90;99.90
44823;DHT22;51097;51.984;5.650;2024-03-22T03:47:42;15.00;99.90
44823;DHT22;51097;51.984;5.650;2024-03-22T03:50:09;14.90;99.90
44823;DHT22;51097;51.984;5.650;2024-03-22T03:52:35;14.80;99.90
44823;DHT22;51097;51.984;5.650;2024-03-22T03:55:01;14.80;99.90
44823;DHT22;51097;51.984;5.650;2024-03-22T03:57:26;14.70;99.90
44823;DHT22;51097;51.984;5.650;2024-03-22T03:59:52;14.70;99.90
44823;DHT22;51097;51.984;5.650;2024-03-22T04:02:17;14.80;99.90
44823;DHT22;51097;51.984;5.650;2024-03-22T04:04:43;14.70;99.90
44823;DHT22;51097;51.984;5.650;2024-03-22T04:07:09;14.70;99.90
44823;DHT22;51097;51.984;5.650;2024-03-22T04:09:34;14.80;99.90
44823;DHT22;51097;51.984;5.650;2024-03-22T04:12:00;14.80;99.90
44823;DHT22;51097;51.984;5.650;2024-03-22T04:14:26;14.70;99.90
44823;DHT22;51097;51.984;5.650;2024-03-22T04:16:52;14.70;99.90
44823;DHT22;51097;51.984;5.650;2024-03-22T04:19:20;14.80;99.90
44823;DHT22;51097;51.984;5.650;2024-03-22T04:21:45;14.80;99.90
44823;DHT22;51097;51.984;5.650;2024-03-22T04:24:11;14.90;99.90
44823;DHT22;51097;51.984;5.650;2024-03-22T04:26:36;14.80;99.90
44823;DHT22;51097;51.984;5.650;2024-03-22T04:29:02;14.60;99.90
44823;DHT22;51097;51.984;5.650;2024-03-22T04:31:27;14.80;99.90
44823;DHT22;51097;51.984;5.650;2024-03-22T04:33:53;14.60;99.90
44823;DHT22;51097;51.984;5.650;2024-03-22T04:36:18;14.60;99.90
44823;DHT22;51097;51.984;5.650;2024-03-22T04:38:44;14.60;99.90
44823;DHT22;51097;51.984;5.650;2024-03-22T04:41:09;14.60;99.90
44823;DHT22;51097;51.984;5.650;2024-03-22T04:43:35;14.50;99.90
44823;DHT22;51097;51.984;5.650;2024-03-22T04:46:01;14.40;99.90
44823;DHT22;51097;51.984;5.650;2024-03-22T04:48:26;14.20;99.90
44823;DHT22;51097;51.984;5.650;2024-03-22T04:50:52;14.40;99.90
44823;DHT22;51097;51.984;5.650;2024-03-22T04:53:19;14.30;99.90
44823;DHT22;51097;51.984;5.650;2024-03-22T04:55:46;14.30;99.90
44823;DHT22;51097;51.984;5.650;2024-03-22T04:58:19;14.30;99.90
44823;DHT22;51097;51.984;5.650;2024-03-22T05:00:46;14.30;99.90
44823;DHT22;51097;51.984;5.650;2024-03-22T05:03:12;14.30;99.90
44823;DHT22;51097;51.984;5.650;2024-03-22T05:05:38;14.20;99.90
44823;DHT22;51097;51.984;5.650;2024-03-22T05:08:04;14.20;99.90
44823;DHT22;51097;51.984;5.650;2024-03-22T05:10:30;14.30;99.90
44823;DHT22;51097;51.984;5.650;2024-03-22T05:12:56;14.10;99.90
44823;DHT22;51097;51.984;5.650;2024-03-22T05:15:22;14.10;99.90
44823;DHT22;51097;51.984;5.650;2024-03-22T05:17:49;14.10;99.90
44823;DHT22;51097;51.984;5.650;2024-03-22T05:20:15;14.00;99.90
44823;DHT22;51097;51.984;5.650;2024-03-22T05:22:41;14.10;99.90
44823;DHT22;51097;51.984;5.650;2024-03-22T05:25:08;14.10;99.90
44823;DHT22;51097;51.984;5.650;2024-03-22T05:27:34;14.30;99.90
44823;DHT22;51097;51.984;5.650;2024-03-22T05:29:59;14.30;99.90
44823;DHT22;51097;51.984;5.650;2024-03-22T05:32:25;14.30;99.90
44823;DHT22;51097;51.984;5.650;2024-03-22T05:34:52;14.20;99.90
44823;DHT22;51097;51.984;5.650;2024-03-22T05:37:18;14.20;99.90
44823;DHT22;51097;51.984;5.650;2024-03-22T05:39:43;14.20;99.90
44823;DHT22;51097;51.984;5.650;2024-03-22T05:42:09;14.40;99.90
44823;DHT22;51097;51.984;5.650;2024-03-22T05:44:35;14.30;99.90
44823;DHT22;51097;51.984;5.650;2024-03-22T05:47:00;14.20;99.90
44823;DHT22;51097;51.984;5.650;2024-03-22T05:49:26;14.40;99.90
44823;DHT22;51097;51.984;5.650;2024-03-22T05:51:52;14.20;99.90
44823;DHT22;51097;51.984;5.650;2024-03-22T05:54:17;14.30;99.90
44823;DHT22;51097;51.984;5.650;2024-03-22T05:56:43;14.20;99.90
44823;DHT22;51097;51.984;5.650;2024-03-22T05:59:08;14.30;99.90
44823;DHT22;51097;51.984;5.650;2024-03-22T06:01:35;14.30;99.90
44823;DHT22;51097;51.984;5.650;2024-03-22T06:04:01;14.20;99.90
44823;DHT22;51097;51.984;5.650;2024-03-22T06:06:26;14.10;99.90
44823;DHT22;51097;51.984;5.650;2024-03-22T06:08:52;14.00;99.90
44823;DHT22;51097;51.984;5.650;2024-03-22T06:11:20;13.90;99.90
44823;DHT22;51097;51.984;5.650;2024-03-22T06:13:49;14.00;99.90
44823;DHT22;51097;51.984;5.650;2024-03-22T06:16:15;14.00;99.90
44823;DHT22;51097;51.984;5.650;2024-03-22T06:18:40;14.00;99.90
44823;DHT22;51097;51.984;5.650;2024-03-22T06:21:06;14.00;99.90
44823;DHT22;51097;51.984;5.650;2024-03-22T06:23:32;14.10;99.90
44823;DHT22;51097;51.984;5.650;2024-03-22T06:25:58;14.10;99.90
44823;DHT22;51097;51.984;5.650;2024-03-22T06:28:27;14.20;99.90
44823;DHT22;51097;51.984;5.650;2024-03-22T06:30:53;14.20;99.90
44823;DHT22;51097;51.984;5.650;2024-03-22T06:33:19;14.10;99.90
44823;DHT22;51097;51.984;5.650;2024-03-22T06:35:46;14.10;99.90
44823;DHT22;51097;51.984;5.650;2024-03-22T06:38:12;14.10;99.90
44823;DHT22;51097;51.984;5.650;2024-03-22T06:40:37;14.10;99.90
44823;DHT22;51097;51.984;5.650;2024-03-22T06:43:03;14.20;99.90
44823;DHT22;51097;51.984;5.650;2024-03-22T06:45:28;14.30;99.90
44823;DHT22;51097;51.984;5.650;2024-03-22T06:47:54;14.30;99.90
44823;DHT22;51097;51.984;5.650;2024-03-22T06:50:20;14.40;99.90
44823;DHT22;51097;51.984;5.650;2024-03-22T06:52:53;14.30;99.90
44823;DHT22;51097;51.984;5.650;2024-03-22T06:55:20;14.50;99.90
44823;DHT22;51097;51.984;5.650;2024-03-22T06:57:47;14.50;99.90
44823;DHT22;51097;51.984;5.650;2024-03-22T07:00:13;14.60;99.90
44823;DHT22;51097;51.984;5.650;2024-03-22T07:02:39;14.50;99.90
44823;DHT22;51097;51.984;5.650;2024-03-22T07:05:06;14.50;99.90
44823;DHT22;51097;51.984;5.650;2024-03-22T07:07:32;14.50;99.90
44823;DHT22;51097;51.984;5.650;2024-03-22T07:09:58;14.60;99.90
44823;DHT22;51097;51.984;5.650;2024-03-22T07:12:23;14.70;99.90
44823;DHT22;51097;51.984;5.650;2024-03-22T07:14:49;14.60;99.90
44823;DHT22;51097;51.984;5.650;2024-03-22T07:17:15;14.50;99.90
44823;DHT22;51097;51.984;5.650;2024-03-22T07:19:40;14.60;99.90
44823;DHT22;51097;51.984;5.650;2024-03-22T07:22:06;14.50;99.90
44823;DHT22;51097;51.984;5.650;2024-03-22T07:24:32;14.50;99.90
44823;DHT22;51097;51.984;5.650;2024-03-22T07:26:57;14.50;99.90
44823;DHT22;51097;51.984;5.650;2024-03-22T07:29:23;14.40;99.90
44823;DHT22;51097;51.984;5.650;2024-03-22T07:31:49;14.50;99.90
44823;DHT22;51097;51.984;5.650;2024-03-22T07:34:14;14.50;99.90
44823;DHT22;51097;51.984;5.650;2024-03-22T07:36:40;14.60;99.90
44823;DHT22;51097;51.984;5.650;2024-03-22T07:39:06;14.60;99.90
44823;DHT22;51097;51.984;5.650;2024-03-22T07:41:32;14.50;99.90
44823;DHT22;51097;51.984;5.650;2024-03-22T07:43:59;14.60;99.90
44823;DHT22;51097;51.984;5.650;2024-03-22T07:46:25;14.50;99.90
44823;DHT22;51097;51.984;5.650;2024-03-22T07:48:51;14.60;99.90
44823;DHT22;51097;51.984;5.650;2024-03-22T07:51:16;14.60;99.90
44823;DHT22;51097;51.984;5.650;2024-03-22T07:53:42;14.60;99.90
44823;DHT22;51097;51.984;5.650;2024-03-22T07:56:07;14.70;99.90
44823;DHT22;51097;51.984;5.650;2024-03-22T07:58:33;14.60;99.90
44823;DHT22;51097;51.984;5.650;2024-03-22T08:00:59;14.70;99.90
44823;DHT22;51097;51.984;5.650;2024-03-22T08:03:24;14.70;99.90
44823;DHT22;51097;51.984;5.650;2024-03-22T08:05:50;14.60;99.90
44823;DHT22;51097;51.984;5.650;2024-03-22T08:08:15;14.60;99.90
44823;DHT22;51097;51.984;5.650;2024-03-22T08:10:41;14.60;99.90
44823;DHT22;51097;51.984;5.650;2024-03-22T08:13:07;14.60;99.90
44823;DHT22;51097;51.984;5.650;2024-03-22T08:15:32;14.60;99.90
44823;DHT22;51097;51.984;5.650;2024-03-22T08:17:58;14.60;99.90
44823;DHT22;51097;51.984;5.650;2024-03-22T08:20:24;14.60;99.90
44823;DHT22;51097;51.984;5.650;2024-03-22T08:22:49;14.60;99.90
44823;DHT22;51097;51.984;5.650;2024-03-22T08:25:15;14.70;99.90
44823;DHT22;51097;51.984;5.650;2024-03-22T08:27:43;14.70;99.90
44823;DHT22;51097;51.984;5.650;2024-03-22T08:30:10;14.60;99.90
44823;DHT22;51097;51.984;5.650;2024-03-22T08:32:35;14.50;99.90
44823;DHT22;51097;51.984;5.650;2024-03-22T08:35:01;14.50;99.90
44823;DHT22;51097;51.984;5.650;2024-03-22T08:37:26;14.50;99.90
44823;DHT22;51097;51.984;5.650;2024-03-22T08:39:52;14.60;99.90
44823;DHT22;51097;51.984;5.650;2024-03-22T08:42:18;14.70;99.90
44823;DHT22;51097;51.984;5.650;2024-03-22T08:44:44;14.60;99.90
44823;DHT22;51097;51.984;5.650;2024-03-22T08:47:09;14.50;99.90
44823;DHT22;51097;51.984;5.650;2024-03-22T08:49:35;14.40;99.90
44823;DHT22;51097;51.984;5.650;2024-03-22T08:52:01;14.40;99.90
44823;DHT22;51097;51.984;5.650;2024-03-22T08:54:27;14.40;99.90
44823;DHT22;51097;51.984;5.650;2024-03-22T08:56:53;14.40;99.90
44823;DHT22;51097;51.984;5.650;2024-03-22T08:59:19;14.30;99.90
44823;DHT22;51097;51.984;5.650;2024-03-22T09:01:44;14.40;99.90
44823;DHT22;51097;51.984;5.650;2024-03-22T09:04:10;14.30;99.90
44823;DHT22;51097;51.984;5.650;2024-03-22T09:06:36;14.50;99.90
44823;DHT22;51097;51.984;5.650;2024-03-22T09:09:01;14.50;99.90
44823;DHT22;51097;51.984;5.650;2024-03-22T09:11:28;14.50;99.90
44823;DHT22;51097;51.984;5.650;2024-03-22T09:13:54;14.60;99.90
44823;DHT22;51097;51.984;5.650;2024-03-22T09:16:20;14.40;99.90
44823;DHT22;51097;51.984;5.650;2024-03-22T09:18:46;14.50;99.90
44823;DHT22;51097;51.984;5.650;2024-03-22T09:21:14;14.40;99.90
44823;DHT22;51097;51.984;5.650;2024-03-22T09:23:40;14.40;99.90
44823;DHT22;51097;51.984;5.650;2024-03-22T09:26:06;14.30;99.90
44823;DHT22;51097;51.984;5.650;2024-03-22T09:28:31;14.30;99.90
44823;DHT22;51097;51.984;5.650;2024-03-22T09:30:57;14.40;99.90
44823;DHT22;51097;51.984;5.650;2024-03-22T09:33:23;14.30;99.90
44823;DHT22;51097;51.984;5.650;2024-03-22T09:35:48;14.40;99.90
44823;DHT22;51097;51.984;5.650;2024-03-22T09:38:14;14.40;99.90
44823;DHT22;51097;51.984;5.650;2024-03-22T09:40:41;14.40;99.90
44823;DHT22;51097;51.984;5.650;2024-03-22T09:43:07;14.50;99.90
44823;DHT22;51097;51.984;5.650;2024-03-22T09:45:34;14.50;99.90
44823;DHT22;51097;51.984;5.650;2024-03-22T09:48:01;14.50;99.90
44823;DHT22;51097;51.984;5.650;2024-03-22T09:50:27;14.50;99.90
44823;DHT22;51097;51.984;5.650;2024-03-22T09:52:53;14.50;99.90
44823;DHT22;51097;51.984;5.650;2024-03-22T09:55:23;14.50;99.90
44823;DHT22;51097;51.984;5.650;2024-03-22T09:57:50;14.50;99.90
44823;DHT22;51097;51.984;5.650;2024-03-22T10:00:20;14.50;99.90
44823;DHT22;51097;51.984;5.650;2024-03-22T10:02:47;14.50;99.90
44823;DHT22;51097;51.984;5.650;2024-03-22T10:05:14;14.40;99.90
44823;DHT22;51097;51.984;5.650;2024-03-22T10:07:40;14.30;99.90
44823;DHT22;51097;51.984;5.650;2024-03-22T10:10:05;14.30;99.90
44823;DHT22;51097;51.984;5.650;2024-03-22T10:12:32;14.30;99.90
44823;DHT22;51097;51.984;5.650;2024-03-22T10:14:58;14.40;99.90
44823;DHT22;51097;51.984;5.650;2024-03-22T10:17:26;14.60;99.90
44823;DHT22;51097;51.984;5.650;2024-03-22T10:19:52;14.60;99.90
44823;DHT22;51097;51.984;5.650;2024-03-22T10:22:19;14.60;99.90
44823;DHT22;51097;51.984;5.650;2024-03-22T10:24:45;14.60;99.90
44823;DHT22;51097;51.984;5.650;2024-03-22T10:27:10;14.50;99.90
44823;DHT22;51097;51.984;5.650;2024-03-22T10:29:36;14.50;99.90
44823;DHT22;51097;51.984;5.650;2024-03-22T10:32:02;14.40;99.90
44823;DHT22;51097;51.984;5.650;2024-03-22T10:34:28;14.40;99.90
44823;DHT22;51097;51.984;5.650;2024-03-22T10:37:00;14.40;99.90
44823;DHT22;51097;51.984;5.650;2024-03-22T10:39:26;14.40;99.90
44823;DHT22;51097;51.984;5.650;2024-03-22T10:41:52;14.50;99.90
44823;DHT22;51097;51.984;5.650;2024-03-22T10:44:18;14.30;99.90
44823;DHT22;51097;51.984;5.650;2024-03-22T10:46:45;14.40;99.90
44823;DHT22;51097;51.984;5.650;2024-03-22T10:49:20;14.40;99.90
44823;DHT22;51097;51.984;5.650;2024-03-22T10:51:52;14.50;99.90
44823;DHT22;51097;51.984;5.650;2024-03-22T10:54:23;14.30;99.90
44823;DHT22;51097;51.984;5.650;2024-03-22T10:56:50;14.30;99.90
44823;DHT22;51097;51.984;5.650;2024-03-22T10:59:21;14.20;99.90
44823;DHT22;51097;51.984;5.650;2024-03-22T11:01:48;14.30;99.90
44823;DHT22;51097;51.984;5.650;2024-03-22T11:04:21;14.40;99.90
44823;DHT22;51097;51.984;5.650;2024-03-22T11:06:52;14.30;99.90
44823;DHT22;51097;51.984;5.650;2024-03-22T11:09:27;14.30;99.90
44823;DHT22;51097;51.984;5.650;2024-03-22T11:11:53;14.30;99.90
44823;DHT22;51097;51.984;5.650;2024-03-22T11:14:19;14.50;99.90
44823;DHT22;51097;51.984;5.650;2024-03-22T11:16:51;14.40;99.90
44823;DHT22;51097;51.984;5.650;2024-03-22T11:19:18;14.40;99.90
44823;DHT22;51097;51.984;5.650;2024-03-22T11:21:43;14.50;99.90
44823;DHT22;51097;51.984;5.650;2024-03-22T11:24:09;14.30;99.90
44823;DHT22;51097;51.984;5.650;2024-03-22T11:26:36;14.30;99.90
44823;DHT22;51097;51.984;5.650;2024-03-22T11:29:02;14.40;99.90
44823;DHT22;51097;51.984;5.650;2024-03-22T11:31:28;14.30;99.90
44823;DHT22;51097;51.984;5.650;2024-03-22T11:33:54;14.30;99.90
44823;DHT22;51097;51.984;5.650;2024-03-22T11:36:19;14.30;99.90
44823;DHT22;51097;51.984;5.650;2024-03-22T11:38:46;14.40;99.90
44823;DHT22;51097;51.984;5.650;2024-03-22T11:41:16;14.40;99.90
44823;DHT22;51097;51.984;5.650;2024-03-22T11:43:42;14.30;99.90
44823;DHT22;51097;51.984;5.650;2024-03-22T11:46:08;14.30;99.90
44823;DHT22;51097;51.984;5.650;2024-03-22T11:48:39;14.30;99.90
44823;DHT22;51097;51.984;5.650;2024-03-22T11:51:05;14.20;99.90
44823;DHT22;51097;51.984;5.650;2024-03-22T11:53:32;14.40;99.90
44823;DHT22;51097;51.984;5.650;2024-03-22T11:55:57;14.40;99.90
44823;DHT22;51097;51.984;5.650;2024-03-22T11:58:26;14.30;99.90
44823;DHT22;51097;51.984;5.650;2024-03-22T12:00:52;14.30;99.90
44823;DHT22;51097;51.984;5.650;2024-03-22T12:03:18;14.40;99.90
44823;DHT22;51097;51.984;5.650;2024-03-22T12:05:43;14.50;99.90
44823;DHT22;51097;51.984;5.650;2024-03-22T12:08:10;14.60;99.90
44823;DHT22;51097;51.984;5.650;2024-03-22T12:10:35;14.60;99.90
44823;DHT22;51097;51.984;5.650;2024-03-22T12:13:01;14.60;99.90
44823;DHT22;51097;51.984;5.650;2024-03-22T12:15:27;14.60;99.90
44823;DHT22;51097;51.984;5.650;2024-03-22T12:17:52;14.70;99.90
44823;DHT22;51097;51.984;5.650;2024-03-22T12:20:18;14.40;99.90
44823;DHT22;51097;51.984;5.650;2024-03-22T12:22:44;14.50;99.90
44823;DHT22;51097;51.984;5.650;2024-03-22T12:25:09;14.60;99.90
44823;DHT22;51097;51.984;5.650;2024-03-22T12:27:37;14.50;99.90
44823;DHT22;51097;51.984;5.650;2024-03-22T12:30:02;14.60;99.90
44823;DHT22;51097;51.984;5.650;2024-03-22T12:32:28;14.70;99.90
44823;DHT22;51097;51.984;5.650;2024-03-22T12:34:54;14.70;99.90
44823;DHT22;51097;51.984;5.650;2024-03-22T12:37:20;14.70;99.90
44823;DHT22;51097;51.984;5.650;2024-03-22T12:39:45;14.90;99.90
44823;DHT22;51097;51.984;5.650;2024-03-22T12:42:12;14.90;99.90
44823;DHT22;51097;51.984;5.650;2024-03-22T12:44:38;14.90;99.90
44823;DHT22;51097;51.984;5.650;2024-03-22T12:47:03;15.00;99.90
44823;DHT22;51097;51.984;5.650;2024-03-22T12:49:29;15.00;99.90
44823;DHT22;51097;51.984;5.650;2024-03-22T12:51:55;15.00;99.90
44823;DHT22;51097;51.984;5.650;2024-03-22T12:54:22;15.00;99.90
44823;DHT22;51097;51.984;5.650;2024-03-22T12:56:47;15.10;99.90
44823;DHT22;51097;51.984;5.650;2024-03-22T12:59:13;15.00;99.90
44823;DHT22;51097;51.984;5.650;2024-03-22T13:01:39;15.00;99.90
44823;DHT22;51097;51.984;5.650;2024-03-22T13:04:04;15.00;99.90
44823;DHT22;51097;51.984;5.650;2024-03-22T13:06:30;15.10;99.90
44823;DHT22;51097;51.984;5.650;2024-03-22T13:08:55;15.00;99.90
44823;DHT22;51097;51.984;5.650;2024-03-22T13:11:21;15.10;99.90
44823;DHT22;51097;51.984;5.650;2024-03-22T13:13:47;15.20;99.90
44823;DHT22;51097;51.984;5.650;2024-03-22T13:16:12;15.20;99.90
44823;DHT22;51097;51.984;5.650;2024-03-22T13:18:41;15.20;99.90
44823;DHT22;51097;51.984;5.650;2024-03-22T13:21:06;15.20;99.90
44823;DHT22;51097;51.984;5.650;2024-03-22T13:23:32;15.20;99.90
44823;DHT22;51097;51.984;5.650;2024-03-22T13:26:05;15.20;99.90
44823;DHT22;51097;51.984;5.650;2024-03-22T13:28:31;15.10;99.90
44823;DHT22;51097;51.984;5.650;2024-03-22T13:31:01;15.20;99.90
44823;DHT22;51097;51.984;5.650;2024-03-22T13:33:28;15.00;99.90
44823;DHT22;51097;51.984;5.650;2024-03-22T13:35:55;15.20;99.90
44823;DHT22;51097;51.984;5.650;2024-03-22T13:38:21;15.30;99.90
44823;DHT22;51097;51.984;5.650;2024-03-22T13:40:56;15.20;99.90
44823;DHT22;51097;51.984;5.650;2024-03-22T13:43:22;15.30;99.90
44823;DHT22;51097;51.984;5.650;2024-03-22T13:45:51;15.20;99.90
44823;DHT22;51097;51.984;5.650;2024-03-22T13:48:21;15.40;99.90
44823;DHT22;51097;51.984;5.650;2024-03-22T13:50:54;15.30;99.90
44823;DHT22;51097;51.984;5.650;2024-03-22T13:53:20;15.30;99.90
44823;DHT22;51097;51.984;5.650;2024-03-22T13:55:50;15.30;99.90
44823;DHT22;51097;51.984;5.650;2024-03-22T13:58:15;15.30;99.90
44823;DHT22;51097;51.984;5.650;2024-03-22T14:00:41;15.20;99.90
44823;DHT22;51097;51.984;5.650;2024-03-22T14:03:07;15.30;99.90
44823;DHT22;51097;51.984;5.650;2024-03-22T14:05:32;15.20;99.90
44823;DHT22;51097;51.984;5.650;2024-03-22T14:07:59;15.20;99.90
44823;DHT22;51097;51.984;5.650;2024-03-22T14:10:25;15.30;99.90
44823;DHT22;51097;51.984;5.650;2024-03-22T14:12:52;15.10;99.90
44823;DHT22;51097;51.984;5.650;2024-03-22T14:15:18;15.00;99.90
44823;DHT22;51097;51.984;5.650;2024-03-22T14:17:44;15.00;99.90
44823;DHT22;51097;51.984;5.650;2024-03-22T14:20:10;15.00;99.90
44823;DHT22;51097;51.984;5.650;2024-03-22T14:22:40;15.10;99.90
44823;DHT22;51097;51.984;5.650;2024-03-22T14:25:07;15.10;99.90
44823;DHT22;51097;51.984;5.650;2024-03-22T14:27:36;15.10;99.90
44823;DHT22;51097;51.984;5.650;2024-03-22T14:30:03;15.10;99.90
44823;DHT22;51097;51.984;5.650;2024-03-22T14:32:36;15.20;99.90
44823;DHT22;51097;51.984;5.650;2024-03-22T14:35:01;15.20;99.90
44823;DHT22;51097;51.984;5.650;2024-03-22T14:37:27;15.10;99.90
44823;DHT22;51097;51.984;5.650;2024-03-22T14:39:53;15.00;99.90
44823;DHT22;51097;51.984;5.650;2024-03-22T14:42:18;14.90;99.90
44823;DHT22;51097;51.984;5.650;2024-03-22T14:44:44;15.20;99.90
44823;DHT22;51097;51.984;5.650;2024-03-22T14:47:10;15.20;99.90
44823;DHT22;51097;51.984;5.650;2024-03-22T14:49:35;15.20;99.90
44823;DHT22;51097;51.984;5.650;2024-03-22T14:52:01;15.30;99.90
44823;DHT22;51097;51.984;5.650;2024-03-22T14:54:27;15.20;99.90
44823;DHT22;51097;51.984;5.650;2024-03-22T14:56:52;15.20;99.90
44823;DHT22;51097;51.984;5.650;2024-03-22T14:59:22;15.20;99.90
44823;DHT22;51097;51.984;5.650;2024-03-22T15:01:47;15.20;99.90
44823;DHT22;51097;51.984;5.650;2024-03-22T15:04:13;15.30;99.90
44823;DHT22;51097;51.984;5.650;2024-03-22T15:06:39;15.20;99.90
44823;DHT22;51097;51.984;5.650;2024-03-22T15:09:04;15.30;99.90
44823;DHT22;51097;51.984;5.650;2024-03-22T15:11:35;15.20;99.90
44823;DHT22;51097;51.984;5.650;2024-03-22T15:14:01;15.20;99.90
44823;DHT22;51097;51.984;5.650;2024-03-22T15:16:28;15.10;99.90
44823;DHT22;51097;51.984;5.650;2024-03-22T15:18:53;15.20;99.90
44823;DHT22;51097;51.984;5.650;2024-03-22T15:21:19;15.10;99.90
44823;DHT22;51097;51.984;5.650;2024-03-22T15:23:46;15.20;99.90